createdAt,value
2023-03-11T00:01:58.294Z,49.50
2023-03-11T00:06:59.994Z,50.18
2023-03-11T00:12:02.916Z,50.08
2023-03-11T00:17:04.580Z,50.10
2023-03-11T00:22:06.196Z,50.59
2023-03-11T00:27:07.869Z,52.73
2023-03-11T00:32:09.560Z,51.94
2023-03-11T00:37:11.954Z,52.15
2023-03-11T00:42:13.643Z,52.28
2023-03-11T00:47:15.264Z,52.17
2023-03-11T00:52:16.986Z,54.30
2023-03-11T00:57:18.725Z,53.83
2023-03-11T01:02:21.029Z,54.17
2023-03-11T01:07:23.690Z,53.91
2023-03-11T01:12:25.447Z,53.27
2023-03-11T01:17:27.124Z,50.83
2023-03-11T01:22:28.742Z,50.42
2023-03-11T01:27:31.122Z,49.14
2023-03-11T01:32:32.770Z,50.25
2023-03-11T01:37:34.608Z,50.75
2023-03-11T01:42:36.321Z,52.33
2023-03-11T01:47:40.335Z,50.22
2023-03-11T01:52:44.808Z,50.95
2023-03-11T01:57:47.789Z,53.18
2023-03-11T02:02:52.784Z,52.42
2023-03-11T02:07:56.362Z,53.78
2023-03-11T02:13:03.503Z,52.96
2023-03-11T02:18:07.171Z,52.82
2023-03-11T02:23:09.922Z,52.41
2023-03-11T02:28:13.534Z,52.71
2023-03-11T02:33:16.842Z,51.96
2023-03-11T02:38:20.877Z,50.26
2023-03-11T02:43:41.079Z,49.73
2023-03-11T02:48:44.729Z,50.00
2023-03-11T02:53:58.463Z,50.88
2023-03-11T02:59:01.398Z,50.41
2023-03-11T03:04:04.859Z,52.25
2023-03-11T03:09:08.229Z,51.18
2023-03-11T03:14:09.927Z,51.86
2023-03-11T03:19:11.696Z,52.24
2023-03-11T03:24:13.486Z,51.34
2023-03-11T03:29:15.346Z,51.78
2023-03-11T03:34:17.868Z,51.88
2023-03-11T03:39:19.997Z,51.89
2023-03-11T03:44:23.715Z,52.19
2023-03-11T03:49:25.440Z,52.32
2023-03-11T03:54:27.672Z,52.85
2023-03-11T03:59:30.429Z,53.64
2023-03-11T04:04:34.572Z,54.14
2023-03-11T04:09:40.069Z,54.24
2023-03-11T04:14:42.454Z,54.65
2023-03-11T04:19:44.980Z,57.30
2023-03-11T04:24:47.460Z,57.78
2023-03-11T04:29:49.456Z,56.92
2023-03-11T04:34:51.218Z,58.71
2023-03-11T04:39:53.468Z,59.09
2023-03-11T04:44:55.385Z,61.39
2023-03-11T04:49:57.387Z,62.49
2023-03-11T04:54:59.647Z,62.57
2023-03-11T05:00:01.346Z,62.66
2023-03-11T05:05:06.750Z,65.02
2023-03-11T05:10:09.353Z,64.94
2023-03-11T05:15:12.437Z,65.74
2023-03-11T05:20:15.830Z,64.53
2023-03-11T05:25:18.358Z,66.58
2023-03-11T05:30:20.278Z,66.46
2023-03-11T05:35:23.499Z,67.09
2023-03-11T05:40:25.306Z,67.00
2023-03-11T05:45:27.538Z,67.89
2023-03-11T05:50:31.497Z,67.26
2023-03-11T05:55:33.314Z,68.27
2023-03-11T06:00:35.676Z,67.75
2023-03-11T06:05:45.444Z,68.67
2023-03-11T06:10:49.020Z,69.77
2023-03-11T06:15:52.022Z,70.44
2023-03-11T06:20:59.211Z,70.74
2023-03-11T06:26:05.897Z,69.91
2023-03-11T06:31:19.558Z,70.41
2023-03-11T06:36:22.337Z,70.73
2023-03-11T06:41:25.670Z,70.73
2023-03-11T06:46:27.794Z,71.10
2023-03-11T06:51:30.806Z,70.59
2023-03-11T06:56:32.805Z,70.07
2023-03-11T07:01:39.508Z,69.92
2023-03-11T07:06:43.459Z,68.44
2023-03-11T07:11:53.030Z,68.93
2023-03-11T07:17:01.390Z,68.55
2023-03-11T07:22:08.552Z,70.13
2023-03-11T07:27:10.199Z,70.14
2023-03-11T07:32:11.925Z,69.90
2023-03-11T07:37:14.292Z,70.41
2023-03-11T07:42:16.009Z,69.72
2023-03-11T07:47:17.688Z,70.21
2023-03-11T07:52:20.237Z,69.98
2023-03-11T07:57:21.919Z,70.45
2023-03-11T08:02:23.677Z,70.85
2023-03-11T08:07:25.395Z,70.22
2023-03-11T08:12:27.006Z,66.96
2023-03-11T08:17:28.781Z,64.11
2023-03-11T08:22:30.554Z,64.02
2023-03-11T08:27:32.302Z,61.77
2023-03-11T08:32:34.094Z,59.26
2023-03-11T08:37:35.706Z,58.11
2023-03-11T08:42:37.377Z,56.41
2023-03-11T08:47:39.303Z,55.07
2023-03-11T08:52:41.129Z,53.99
2023-03-11T08:57:42.840Z,53.90
2023-03-11T09:02:44.525Z,52.81
2023-03-11T09:07:46.342Z,52.92
2023-03-11T09:12:47.978Z,53.09
2023-03-11T09:17:49.654Z,51.79
2023-03-11T09:22:51.284Z,50.65
2023-03-11T09:27:52.842Z,49.90
2023-03-11T09:32:54.714Z,47.86
2023-03-11T09:37:56.391Z,49.35
2023-03-11T09:43:19.343Z,50.18
2023-03-11T09:48:32.363Z,50.24
2023-03-11T09:53:49.406Z,49.00
2023-03-11T09:59:00.022Z,50.66
2023-03-11T10:04:15.012Z,50.17
2023-03-11T10:09:37.029Z,51.09
2023-03-11T10:15:17.235Z,49.28
2023-03-11T10:20:29.204Z,48.21
2023-03-11T10:25:46.653Z,47.97
2023-03-11T10:30:53.027Z,47.09
2023-03-11T10:35:58.447Z,45.59
2023-03-11T10:41:05.008Z,47.67
2023-03-11T10:46:18.828Z,45.53
2023-03-11T10:51:27.054Z,44.35
2023-03-11T10:56:30.644Z,42.68
2023-03-11T11:01:32.997Z,44.43
2023-03-11T11:06:36.135Z,42.44
2023-03-11T11:11:39.623Z,41.73
2023-03-11T11:16:41.294Z,40.61
2023-03-11T11:21:48.797Z,40.69
2023-03-11T11:27:15.109Z,40.74
2023-03-11T11:32:21.624Z,40.81
2023-03-11T11:37:26.881Z,39.98
2023-03-11T11:42:31.313Z,41.16
2023-03-11T11:47:39.555Z,39.27
2023-03-11T11:52:47.978Z,39.21
2023-03-11T11:57:51.429Z,39.65
2023-03-11T12:03:10.342Z,40.69
2023-03-11T12:08:30.764Z,41.09
2023-03-11T12:14:02.096Z,39.06
2023-03-11T12:19:19.613Z,40.08
2023-03-11T12:24:45.752Z,40.10
2023-03-11T12:29:52.895Z,39.97
2023-03-11T12:34:54.574Z,39.98
2023-03-11T12:39:56.316Z,40.05
2023-03-11T12:45:36.530Z,40.84
2023-03-11T12:50:41.265Z,39.81
2023-03-11T12:56:01.303Z,40.79
2023-03-11T13:01:20.891Z,41.70
2023-03-11T13:06:41.273Z,40.91
2023-03-11T13:11:45.902Z,41.42
2023-03-11T13:16:47.939Z,41.33
2023-03-11T13:21:49.576Z,41.72
2023-03-11T13:27:02.194Z,41.33
2023-03-11T13:32:45.280Z,42.30
2023-03-11T13:38:24.220Z,43.33
2023-03-11T13:43:26.518Z,44.80
2023-03-11T13:48:37.680Z,45.46
2023-03-11T13:53:46.100Z,44.80
2023-03-11T13:58:47.696Z,44.77
2023-03-11T14:03:49.544Z,45.99
2023-03-11T14:08:55.619Z,45.44
2023-03-11T14:13:57.285Z,45.19
2023-03-11T14:19:04.855Z,45.96
2023-03-11T14:24:06.621Z,46.03
2023-03-11T14:29:12.804Z,47.10
2023-03-11T14:34:20.124Z,45.28
2023-03-11T14:39:33.920Z,46.41
2023-03-11T14:44:40.419Z,45.47
2023-03-11T14:49:42.878Z,46.20
2023-03-11T14:54:45.876Z,45.68
2023-03-11T14:59:51.089Z,43.81
2023-03-11T15:04:54.637Z,45.74
2023-03-11T15:09:56.646Z,45.95
2023-03-11T15:15:01.455Z,46.95
2023-03-11T15:20:55.283Z,48.26
2023-03-11T15:26:55.960Z,48.34
2023-03-11T15:33:28.948Z,48.80
2023-03-11T15:39:26.567Z,50.42
2023-03-11T15:44:41.206Z,49.36
2023-03-11T15:49:43.267Z,50.04
2023-03-11T15:54:54.724Z,51.00
2023-03-11T15:59:59.976Z,50.15
2023-03-11T16:05:01.887Z,50.12
2023-03-11T16:10:04.514Z,51.09
2023-03-11T16:15:07.300Z,51.42
2023-03-11T16:20:09.688Z,51.52
2023-03-11T16:25:23.667Z,51.85
2023-03-11T16:30:29.727Z,52.66
2023-03-11T16:35:31.422Z,51.72
2023-03-11T16:40:33.091Z,52.25
2023-03-11T16:45:34.787Z,52.07
2023-03-11T16:50:37.638Z,50.42
2023-03-11T16:55:39.602Z,50.47
2023-03-11T17:00:42.117Z,49.68
2023-03-11T17:05:43.901Z,49.76
2023-03-11T17:10:46.465Z,50.20
2023-03-11T17:16:02.557Z,49.91
2023-03-11T17:21:09.799Z,51.10
2023-03-11T17:26:16.659Z,51.70
2023-03-11T17:31:19.015Z,52.23
2023-03-11T17:36:20.846Z,52.89
2023-03-11T17:41:23.450Z,52.40
2023-03-11T17:46:25.260Z,52.62
2023-03-11T17:51:26.965Z,52.86
2023-03-11T17:56:28.744Z,52.76
2023-03-11T18:01:30.618Z,52.92
2023-03-11T18:06:32.303Z,53.07
2023-03-11T18:11:33.984Z,53.75
2023-03-11T18:16:35.691Z,53.86
2023-03-11T18:21:37.712Z,54.70
2023-03-11T18:26:39.380Z,54.87
2023-03-11T18:31:41.244Z,54.16
2023-03-11T18:36:43.294Z,55.30
2023-03-11T18:41:44.997Z,55.65
2023-03-11T18:46:46.677Z,56.35
2023-03-11T18:51:48.278Z,56.16
2023-03-11T18:56:50.311Z,55.43
2023-03-11T19:01:51.940Z,55.91
2023-03-11T19:06:53.680Z,56.70
2023-03-11T19:11:55.376Z,56.83
2023-03-11T19:16:57.283Z,56.69
2023-03-11T19:21:59.016Z,57.46
2023-03-11T19:27:00.709Z,57.89
2023-03-11T19:32:03.656Z,57.91
2023-03-11T19:37:05.596Z,58.38
2023-03-11T19:42:07.277Z,58.43
2023-03-11T19:47:09.191Z,58.81
2023-03-11T19:52:11.239Z,57.50
2023-03-11T19:57:12.878Z,58.07
2023-03-11T20:02:14.766Z,57.76
2023-03-11T20:07:16.903Z,58.23
2023-03-11T20:12:18.831Z,58.33
2023-03-11T20:17:20.578Z,58.77
2023-03-11T20:22:22.267Z,59.18
2023-03-11T20:27:24.035Z,59.26
2023-03-11T20:32:25.831Z,58.96
2023-03-11T20:37:29.967Z,59.56
2023-03-11T20:42:31.970Z,59.36
2023-03-11T20:47:33.618Z,59.84
2023-03-11T20:52:35.988Z,59.55
2023-03-11T20:57:38.702Z,60.45
2023-03-11T21:02:42.327Z,59.92
2023-03-11T21:07:44.248Z,60.21
2023-03-11T21:12:45.853Z,60.84
2023-03-11T21:17:47.579Z,61.13
2023-03-11T21:22:49.649Z,62.02
2023-03-11T21:27:51.372Z,61.75
2023-03-11T21:32:53.141Z,62.15
2023-03-11T21:37:55.151Z,61.77
2023-03-11T21:42:56.825Z,62.44
2023-03-11T21:47:58.428Z,62.41
2023-03-11T21:53:00.211Z,62.11
2023-03-11T21:58:02.124Z,63.02
2023-03-11T22:03:04.093Z,62.27
2023-03-11T22:08:05.779Z,62.00
2023-03-11T22:13:07.971Z,62.99
2023-03-11T22:18:10.677Z,62.71
2023-03-11T22:23:12.539Z,62.23
2023-03-11T22:28:14.823Z,61.85
2023-03-11T22:33:17.020Z,62.06
2023-03-11T22:38:18.785Z,62.44
2023-03-11T22:43:20.868Z,62.17
2023-03-11T22:48:22.529Z,62.11
2023-03-11T22:53:25.041Z,63.10
2023-03-11T22:58:26.728Z,63.07
2023-03-11T23:03:28.593Z,62.99
2023-03-11T23:08:30.378Z,62.54
2023-03-11T23:13:35.649Z,63.25
2023-03-11T23:18:37.955Z,63.46
2023-03-11T23:23:39.662Z,63.20
2023-03-11T23:28:42.455Z,63.20
2023-03-11T23:33:45.363Z,63.48
2023-03-11T23:38:47.743Z,63.29
2023-03-11T23:43:49.652Z,62.54
2023-03-11T23:48:51.545Z,62.73
2023-03-11T23:53:53.238Z,63.22
2023-03-11T23:58:54.909Z,62.62
